Terminal Aerodrome Forecast
Issued by NWS Charleston, WV

Current Version | Previous Version | Graphics & Text | Print | Product List | Glossary On
Versions: 1 2 3 4 5 6 7 8 9 10 11 12 13 14 15 16 17 18 19 20 21 22
000
FTUS41 KRLX 160800 AAA
TAFEKN
TAF AMD
KEKN 160837Z 1609/1706 20005KT P6SM FEW150
     FM161500 18009KT P6SM OVC070
     FM161800 21009G14KT P6SM -SHRA OVC070
     FM170100 18006KT P6SM SHRA OVC045
     FM170400 16005KT P6SM BKN070=

USA.gov is the U.S. government's official web portal to all federal, state and local government web resources and services.